sensor_id;sensor_type;location;lat;lon;timestamp;P1;durP1;ratioP1;P2;durP2;ratioP2
39728;SDS011;25402;42.004;23.088;2023-05-07T00:00:24;11.35;;;5.45;;
39728;SDS011;25402;42.004;23.088;2023-05-07T00:02:51;12.50;;;6.05;;
39728;SDS011;25402;42.004;23.088;2023-05-07T00:05:18;12.25;;;6.38;;
39728;SDS011;25402;42.004;23.088;2023-05-07T00:07:46;10.80;;;5.28;;
39728;SDS011;25402;42.004;23.088;2023-05-07T00:10:13;9.27;;;4.90;;
39728;SDS011;25402;42.004;23.088;2023-05-07T00:12:41;8.15;;;5.38;;
39728;SDS011;25402;42.004;23.088;2023-05-07T00:15:08;8.20;;;5.00;;
39728;SDS011;25402;42.004;23.088;2023-05-07T00:17:35;7.28;;;5.43;;
39728;SDS011;25402;42.004;23.088;2023-05-07T00:20:03;21.70;;;5.80;;
39728;SDS011;25402;42.004;23.088;2023-05-07T00:22:31;10.55;;;6.03;;
39728;SDS011;25402;42.004;23.088;2023-05-07T00:24:58;8.13;;;5.28;;
39728;SDS011;25402;42.004;23.088;2023-05-07T00:27:25;7.60;;;5.05;;
39728;SDS011;25402;42.004;23.088;2023-05-07T00:29:53;12.13;;;6.05;;
39728;SDS011;25402;42.004;23.088;2023-05-07T00:32:20;13.13;;;6.00;;
39728;SDS011;25402;42.004;23.088;2023-05-07T00:34:47;10.35;;;5.80;;
39728;SDS011;25402;42.004;23.088;2023-05-07T00:37:14;8.38;;;5.68;;
39728;SDS011;25402;42.004;23.088;2023-05-07T00:39:41;8.75;;;6.07;;
39728;SDS011;25402;42.004;23.088;2023-05-07T00:42:08;9.38;;;5.72;;
39728;SDS011;25402;42.004;23.088;2023-05-07T00:44:35;8.32;;;5.93;;
39728;SDS011;25402;42.004;23.088;2023-05-07T00:47:03;9.80;;;5.60;;
39728;SDS011;25402;42.004;23.088;2023-05-07T00:49:33;11.07;;;5.75;;
39728;SDS011;25402;42.004;23.088;2023-05-07T00:52:05;10.70;;;5.30;;
39728;SDS011;25402;42.004;23.088;2023-05-07T00:54:33;10.50;;;5.70;;
39728;SDS011;25402;42.004;23.088;2023-05-07T00:57:01;8.07;;;5.30;;
39728;SDS011;25402;42.004;23.088;2023-05-07T00:59:29;11.63;;;5.43;;
39728;SDS011;25402;42.004;23.088;2023-05-07T01:01:56;10.05;;;5.20;;
39728;SDS011;25402;42.004;23.088;2023-05-07T01:04:25;7.80;;;5.07;;
39728;SDS011;25402;42.004;23.088;2023-05-07T01:06:53;9.82;;;5.65;;
39728;SDS011;25402;42.004;23.088;2023-05-07T01:09:22;9.38;;;5.68;;
39728;SDS011;25402;42.004;23.088;2023-05-07T01:11:50;9.32;;;5.47;;
39728;SDS011;25402;42.004;23.088;2023-05-07T01:14:17;6.70;;;4.72;;
39728;SDS011;25402;42.004;23.088;2023-05-07T01:16:45;9.50;;;5.57;;
39728;SDS011;25402;42.004;23.088;2023-05-07T01:19:12;10.40;;;5.53;;
39728;SDS011;25402;42.004;23.088;2023-05-07T01:21:46;8.85;;;5.38;;
39728;SDS011;25402;42.004;23.088;2023-05-07T01:24:15;6.65;;;4.75;;
39728;SDS011;25402;42.004;23.088;2023-05-07T01:26:44;6.55;;;5.13;;
39728;SDS011;25402;42.004;23.088;2023-05-07T01:29:11;7.50;;;4.65;;
39728;SDS011;25402;42.004;23.088;2023-05-07T01:31:38;8.80;;;4.90;;
39728;SDS011;25402;42.004;23.088;2023-05-07T01:34:07;6.40;;;4.93;;
39728;SDS011;25402;42.004;23.088;2023-05-07T01:36:37;10.15;;;5.40;;
39728;SDS011;25402;42.004;23.088;2023-05-07T01:39:06;12.70;;;5.15;;
39728;SDS011;25402;42.004;23.088;2023-05-07T01:41:35;8.75;;;5.22;;
39728;SDS011;25402;42.004;23.088;2023-05-07T01:44:03;8.38;;;5.20;;
39728;SDS011;25402;42.004;23.088;2023-05-07T01:46:32;9.88;;;5.07;;
39728;SDS011;25402;42.004;23.088;2023-05-07T01:48:59;8.10;;;5.70;;
39728;SDS011;25402;42.004;23.088;2023-05-07T01:51:26;8.70;;;5.15;;
39728;SDS011;25402;42.004;23.088;2023-05-07T01:53:53;8.45;;;5.40;;
39728;SDS011;25402;42.004;23.088;2023-05-07T01:56:20;6.68;;;4.97;;
39728;SDS011;25402;42.004;23.088;2023-05-07T01:58:49;7.82;;;4.68;;
39728;SDS011;25402;42.004;23.088;2023-05-07T02:01:17;10.18;;;5.68;;
39728;SDS011;25402;42.004;23.088;2023-05-07T02:03:44;7.07;;;5.53;;
39728;SDS011;25402;42.004;23.088;2023-05-07T02:06:11;7.32;;;5.07;;
39728;SDS011;25402;42.004;23.088;2023-05-07T02:08:37;8.05;;;4.82;;
39728;SDS011;25402;42.004;23.088;2023-05-07T02:11:04;9.43;;;5.53;;
39728;SDS011;25402;42.004;23.088;2023-05-07T02:13:32;11.98;;;5.72;;
39728;SDS011;25402;42.004;23.088;2023-05-07T02:16:01;7.78;;;5.40;;
39728;SDS011;25402;42.004;23.088;2023-05-07T02:18:28;9.60;;;6.05;;
39728;SDS011;25402;42.004;23.088;2023-05-07T02:20:55;22.20;;;6.40;;
39728;SDS011;25402;42.004;23.088;2023-05-07T02:23:22;9.82;;;5.80;;
39728;SDS011;25402;42.004;23.088;2023-05-07T02:25:49;7.82;;;5.30;;
39728;SDS011;25402;42.004;23.088;2023-05-07T02:28:17;8.05;;;5.40;;
39728;SDS011;25402;42.004;23.088;2023-05-07T02:30:44;6.22;;;4.82;;
39728;SDS011;25402;42.004;23.088;2023-05-07T02:33:12;9.55;;;5.63;;
39728;SDS011;25402;42.004;23.088;2023-05-07T02:35:39;9.93;;;5.25;;
39728;SDS011;25402;42.004;23.088;2023-05-07T02:38:06;9.77;;;5.30;;
39728;SDS011;25402;42.004;23.088;2023-05-07T02:40:35;12.15;;;5.82;;
39728;SDS011;25402;42.004;23.088;2023-05-07T02:43:04;9.75;;;5.30;;
39728;SDS011;25402;42.004;23.088;2023-05-07T02:45:31;9.80;;;5.55;;
39728;SDS011;25402;42.004;23.088;2023-05-07T02:47:58;9.05;;;4.88;;
39728;SDS011;25402;42.004;23.088;2023-05-07T02:50:26;6.28;;;5.20;;
39728;SDS011;25402;42.004;23.088;2023-05-07T02:52:53;9.75;;;6.35;;
39728;SDS011;25402;42.004;23.088;2023-05-07T02:55:20;7.68;;;5.05;;
39728;SDS011;25402;42.004;23.088;2023-05-07T02:57:46;6.47;;;4.70;;
39728;SDS011;25402;42.004;23.088;2023-05-07T03:00:14;9.35;;;5.32;;
39728;SDS011;25402;42.004;23.088;2023-05-07T03:02:42;8.32;;;5.50;;
39728;SDS011;25402;42.004;23.088;2023-05-07T03:05:09;7.47;;;5.25;;
39728;SDS011;25402;42.004;23.088;2023-05-07T03:07:39;8.95;;;5.63;;
39728;SDS011;25402;42.004;23.088;2023-05-07T03:10:06;14.38;;;5.80;;
39728;SDS011;25402;42.004;23.088;2023-05-07T03:12:33;10.77;;;5.55;;
39728;SDS011;25402;42.004;23.088;2023-05-07T03:15:00;6.40;;;4.80;;
39728;SDS011;25402;42.004;23.088;2023-05-07T03:17:27;11.60;;;5.45;;
39728;SDS011;25402;42.004;23.088;2023-05-07T03:19:54;10.90;;;6.18;;
39728;SDS011;25402;42.004;23.088;2023-05-07T03:22:21;9.32;;;6.47;;
39728;SDS011;25402;42.004;23.088;2023-05-07T03:24:49;11.32;;;7.00;;
39728;SDS011;25402;42.004;23.088;2023-05-07T03:27:16;10.38;;;6.90;;
39728;SDS011;25402;42.004;23.088;2023-05-07T03:29:43;10.88;;;6.13;;
39728;SDS011;25402;42.004;23.088;2023-05-07T03:32:10;8.82;;;5.90;;
39728;SDS011;25402;42.004;23.088;2023-05-07T03:34:36;12.20;;;5.65;;
39728;SDS011;25402;42.004;23.088;2023-05-07T03:37:03;13.93;;;6.30;;
39728;SDS011;25402;42.004;23.088;2023-05-07T03:39:30;15.77;;;6.65;;
39728;SDS011;25402;42.004;23.088;2023-05-07T03:41:58;9.30;;;6.28;;
39728;SDS011;25402;42.004;23.088;2023-05-07T03:44:26;10.77;;;6.00;;
39728;SDS011;25402;42.004;23.088;2023-05-07T03:46:53;9.45;;;6.03;;
39728;SDS011;25402;42.004;23.088;2023-05-07T03:49:20;12.82;;;6.22;;
39728;SDS011;25402;42.004;23.088;2023-05-07T03:51:47;10.50;;;5.40;;
39728;SDS011;25402;42.004;23.088;2023-05-07T03:54:14;17.27;;;5.78;;
39728;SDS011;25402;42.004;23.088;2023-05-07T03:56:40;8.68;;;5.47;;
39728;SDS011;25402;42.004;23.088;2023-05-07T03:59:09;8.38;;;5.18;;
39728;SDS011;25402;42.004;23.088;2023-05-07T04:01:35;10.55;;;5.47;;
39728;SDS011;25402;42.004;23.088;2023-05-07T04:04:02;7.28;;;5.47;;
39728;SDS011;25402;42.004;23.088;2023-05-07T04:06:29;9.27;;;5.47;;
39728;SDS011;25402;42.004;23.088;2023-05-07T04:08:57;10.75;;;5.88;;
39728;SDS011;25402;42.004;23.088;2023-05-07T04:11:24;9.85;;;5.88;;
39728;SDS011;25402;42.004;23.088;2023-05-07T04:13:51;9.75;;;5.55;;
39728;SDS011;25402;42.004;23.088;2023-05-07T04:16:19;12.38;;;5.78;;
39728;SDS011;25402;42.004;23.088;2023-05-07T04:18:46;10.32;;;4.78;;
39728;SDS011;25402;42.004;23.088;2023-05-07T04:21:14;7.65;;;5.05;;
39728;SDS011;25402;42.004;23.088;2023-05-07T04:23:42;11.13;;;5.20;;
39728;SDS011;25402;42.004;23.088;2023-05-07T04:26:09;10.40;;;4.90;;
39728;SDS011;25402;42.004;23.088;2023-05-07T04:28:36;18.90;;;5.53;;
39728;SDS011;25402;42.004;23.088;2023-05-07T04:31:03;19.27;;;5.32;;
39728;SDS011;25402;42.004;23.088;2023-05-07T04:33:31;11.80;;;4.60;;
39728;SDS011;25402;42.004;23.088;2023-05-07T04:35:58;8.15;;;4.50;;
39728;SDS011;25402;42.004;23.088;2023-05-07T04:38:29;11.10;;;4.70;;
39728;SDS011;25402;42.004;23.088;2023-05-07T04:40:56;12.20;;;4.90;;
39728;SDS011;25402;42.004;23.088;2023-05-07T04:43:23;17.90;;;4.85;;
39728;SDS011;25402;42.004;23.088;2023-05-07T04:45:51;16.45;;;4.68;;
39728;SDS011;25402;42.004;23.088;2023-05-07T04:48:18;9.40;;;5.55;;
39728;SDS011;25402;42.004;23.088;2023-05-07T04:50:48;8.18;;;5.30;;
39728;SDS011;25402;42.004;23.088;2023-05-07T04:53:15;9.88;;;5.75;;
39728;SDS011;25402;42.004;23.088;2023-05-07T04:55:43;9.48;;;5.00;;
39728;SDS011;25402;42.004;23.088;2023-05-07T04:58:10;7.20;;;4.35;;
39728;SDS011;25402;42.004;23.088;2023-05-07T05:00:37;10.95;;;4.57;;
39728;SDS011;25402;42.004;23.088;2023-05-07T05:03:04;9.93;;;4.35;;
39728;SDS011;25402;42.004;23.088;2023-05-07T05:05:32;7.22;;;4.82;;
39728;SDS011;25402;42.004;23.088;2023-05-07T05:08:00;7.93;;;4.30;;
39728;SDS011;25402;42.004;23.088;2023-05-07T05:10:27;9.52;;;4.40;;
39728;SDS011;25402;42.004;23.088;2023-05-07T05:12:54;7.95;;;4.65;;
39728;SDS011;25402;42.004;23.088;2023-05-07T05:15:21;17.00;;;4.53;;
39728;SDS011;25402;42.004;23.088;2023-05-07T05:17:48;17.17;;;4.35;;
39728;SDS011;25402;42.004;23.088;2023-05-07T05:20:15;11.85;;;4.35;;
39728;SDS011;25402;42.004;23.088;2023-05-07T05:22:42;5.68;;;4.28;;
39728;SDS011;25402;42.004;23.088;2023-05-07T05:25:10;7.55;;;4.50;;
39728;SDS011;25402;42.004;23.088;2023-05-07T05:27:37;7.90;;;4.75;;
39728;SDS011;25402;42.004;23.088;2023-05-07T05:30:04;7.40;;;4.93;;
39728;SDS011;25402;42.004;23.088;2023-05-07T05:32:32;6.22;;;4.47;;
39728;SDS011;25402;42.004;23.088;2023-05-07T05:34:58;5.90;;;3.90;;
39728;SDS011;25402;42.004;23.088;2023-05-07T05:37:25;8.70;;;4.90;;
39728;SDS011;25402;42.004;23.088;2023-05-07T05:39:52;7.70;;;4.35;;
39728;SDS011;25402;42.004;23.088;2023-05-07T05:42:22;7.00;;;4.00;;
39728;SDS011;25402;42.004;23.088;2023-05-07T05:44:49;9.68;;;4.20;;
39728;SDS011;25402;42.004;23.088;2023-05-07T05:47:16;9.52;;;4.35;;
39728;SDS011;25402;42.004;23.088;2023-05-07T05:49:43;6.43;;;4.50;;
39728;SDS011;25402;42.004;23.088;2023-05-07T05:52:11;8.18;;;4.80;;
39728;SDS011;25402;42.004;23.088;2023-05-07T05:54:39;9.10;;;4.85;;
39728;SDS011;25402;42.004;23.088;2023-05-07T05:57:05;9.63;;;4.47;;
39728;SDS011;25402;42.004;23.088;2023-05-07T05:59:34;6.30;;;4.40;;
39728;SDS011;25402;42.004;23.088;2023-05-07T06:02:00;5.93;;;4.50;;
39728;SDS011;25402;42.004;23.088;2023-05-07T06:04:27;11.55;;;5.03;;
39728;SDS011;25402;42.004;23.088;2023-05-07T06:06:54;6.60;;;4.43;;
39728;SDS011;25402;42.004;23.088;2023-05-07T06:09:21;7.38;;;4.80;;
39728;SDS011;25402;42.004;23.088;2023-05-07T06:11:48;10.95;;;4.90;;
39728;SDS011;25402;42.004;23.088;2023-05-07T06:14:15;10.30;;;4.97;;
39728;SDS011;25402;42.004;23.088;2023-05-07T06:16:43;8.02;;;4.60;;
39728;SDS011;25402;42.004;23.088;2023-05-07T06:19:10;7.63;;;4.88;;
39728;SDS011;25402;42.004;23.088;2023-05-07T06:21:38;10.10;;;4.78;;
39728;SDS011;25402;42.004;23.088;2023-05-07T06:24:06;18.33;;;4.70;;
39728;SDS011;25402;42.004;23.088;2023-05-07T06:26:33;10.65;;;4.85;;
39728;SDS011;25402;42.004;23.088;2023-05-07T06:29:00;12.07;;;5.00;;
39728;SDS011;25402;42.004;23.088;2023-05-07T06:31:29;7.60;;;4.88;;
39728;SDS011;25402;42.004;23.088;2023-05-07T06:33:59;9.07;;;4.70;;
39728;SDS011;25402;42.004;23.088;2023-05-07T06:36:27;5.88;;;4.40;;
39728;SDS011;25402;42.004;23.088;2023-05-07T06:38:54;10.48;;;4.97;;
39728;SDS011;25402;42.004;23.088;2023-05-07T06:41:21;11.52;;;5.22;;
39728;SDS011;25402;42.004;23.088;2023-05-07T06:43:48;8.85;;;5.00;;
39728;SDS011;25402;42.004;23.088;2023-05-07T06:46:15;10.80;;;5.28;;
39728;SDS011;25402;42.004;23.088;2023-05-07T06:48:42;11.82;;;4.90;;
39728;SDS011;25402;42.004;23.088;2023-05-07T06:51:10;8.27;;;4.90;;
39728;SDS011;25402;42.004;23.088;2023-05-07T06:53:37;9.40;;;4.75;;
39728;SDS011;25402;42.004;23.088;2023-05-07T06:56:04;8.18;;;4.55;;
39728;SDS011;25402;42.004;23.088;2023-05-07T06:58:32;7.70;;;4.95;;
39728;SDS011;25402;42.004;23.088;2023-05-07T07:00:59;9.27;;;4.88;;
39728;SDS011;25402;42.004;23.088;2023-05-07T07:03:26;16.13;;;5.25;;
39728;SDS011;25402;42.004;23.088;2023-05-07T07:05:53;10.70;;;4.88;;
39728;SDS011;25402;42.004;23.088;2023-05-07T07:08:22;8.30;;;4.43;;
39728;SDS011;25402;42.004;23.088;2023-05-07T07:10:49;10.38;;;5.43;;
39728;SDS011;25402;42.004;23.088;2023-05-07T07:13:16;11.45;;;4.72;;
39728;SDS011;25402;42.004;23.088;2023-05-07T07:15:43;10.70;;;5.10;;
39728;SDS011;25402;42.004;23.088;2023-05-07T07:18:10;6.63;;;4.72;;
39728;SDS011;25402;42.004;23.088;2023-05-07T07:20:38;8.57;;;4.53;;
39728;SDS011;25402;42.004;23.088;2023-05-07T07:23:05;11.68;;;4.68;;
39728;SDS011;25402;42.004;23.088;2023-05-07T07:25:33;11.73;;;5.05;;
39728;SDS011;25402;42.004;23.088;2023-05-07T07:28:00;12.02;;;4.72;;
39728;SDS011;25402;42.004;23.088;2023-05-07T07:30:27;11.43;;;5.13;;
39728;SDS011;25402;42.004;23.088;2023-05-07T07:32:54;11.20;;;4.90;;
39728;SDS011;25402;42.004;23.088;2023-05-07T07:35:25;15.35;;;5.47;;
39728;SDS011;25402;42.004;23.088;2023-05-07T07:37:52;12.82;;;4.97;;
39728;SDS011;25402;42.004;23.088;2023-05-07T07:40:19;10.73;;;4.72;;
39728;SDS011;25402;42.004;23.088;2023-05-07T07:42:47;15.10;;;5.00;;
39728;SDS011;25402;42.004;23.088;2023-05-07T07:45:14;12.55;;;4.40;;
39728;SDS011;25402;42.004;23.088;2023-05-07T07:47:41;8.63;;;4.97;;
39728;SDS011;25402;42.004;23.088;2023-05-07T07:50:08;13.73;;;4.22;;
39728;SDS011;25402;42.004;23.088;2023-05-07T07:52:35;14.20;;;4.80;;
39728;SDS011;25402;42.004;23.088;2023-05-07T07:55:03;7.53;;;4.20;;
39728;SDS011;25402;42.004;23.088;2023-05-07T07:57:30;8.73;;;3.92;;
39728;SDS011;25402;42.004;23.088;2023-05-07T07:59:58;20.30;;;4.60;;
39728;SDS011;25402;42.004;23.088;2023-05-07T08:02:25;7.00;;;3.97;;
39728;SDS011;25402;42.004;23.088;2023-05-07T08:04:52;9.13;;;4.03;;
39728;SDS011;25402;42.004;23.088;2023-05-07T08:07:19;8.98;;;4.40;;
39728;SDS011;25402;42.004;23.088;2023-05-07T08:09:47;7.57;;;3.80;;
39728;SDS011;25402;42.004;23.088;2023-05-07T08:12:14;9.23;;;4.40;;
39728;SDS011;25402;42.004;23.088;2023-05-07T08:14:41;5.68;;;3.97;;
39728;SDS011;25402;42.004;23.088;2023-05-07T08:17:10;7.30;;;3.60;;
39728;SDS011;25402;42.004;23.088;2023-05-07T08:19:36;8.38;;;3.78;;
39728;SDS011;25402;42.004;23.088;2023-05-07T08:22:03;10.95;;;4.13;;
39728;SDS011;25402;42.004;23.088;2023-05-07T08:24:30;87.68;;;8.20;;
39728;SDS011;25402;42.004;23.088;2023-05-07T08:26:57;31.10;;;5.20;;
39728;SDS011;25402;42.004;23.088;2023-05-07T08:29:24;8.15;;;4.10;;
39728;SDS011;25402;42.004;23.088;2023-05-07T08:31:51;9.38;;;4.25;;
39728;SDS011;25402;42.004;23.088;2023-05-07T08:34:19;11.10;;;3.72;;
39728;SDS011;25402;42.004;23.088;2023-05-07T08:36:47;10.60;;;3.83;;
39728;SDS011;25402;42.004;23.088;2023-05-07T08:39:14;8.30;;;3.63;;
39728;SDS011;25402;42.004;23.088;2023-05-07T08:41:42;8.73;;;3.15;;
39728;SDS011;25402;42.004;23.088;2023-05-07T08:44:11;47.83;;;5.32;;
39728;SDS011;25402;42.004;23.088;2023-05-07T08:46:42;9.15;;;3.30;;
39728;SDS011;25402;42.004;23.088;2023-05-07T08:51:42;7.35;;;3.38;;
39728;SDS011;25402;42.004;23.088;2023-05-07T08:54:09;6.95;;;3.67;;
39728;SDS011;25402;42.004;23.088;2023-05-07T08:56:37;6.35;;;3.83;;
39728;SDS011;25402;42.004;23.088;2023-05-07T08:59:05;7.80;;;3.28;;
39728;SDS011;25402;42.004;23.088;2023-05-07T09:01:32;6.75;;;3.75;;
39728;SDS011;25402;42.004;23.088;2023-05-07T09:04:01;6.75;;;3.40;;
39728;SDS011;25402;42.004;23.088;2023-05-07T09:06:28;4.70;;;3.28;;
39728;SDS011;25402;42.004;23.088;2023-05-07T09:08:56;9.88;;;3.22;;
39728;SDS011;25402;42.004;23.088;2023-05-07T09:11:26;8.55;;;3.72;;
39728;SDS011;25402;42.004;23.088;2023-05-07T09:13:54;5.57;;;3.72;;
39728;SDS011;25402;42.004;23.088;2023-05-07T09:16:23;8.52;;;3.42;;
39728;SDS011;25402;42.004;23.088;2023-05-07T09:18:51;10.20;;;3.63;;
39728;SDS011;25402;42.004;23.088;2023-05-07T09:21:19;5.43;;;3.63;;
39728;SDS011;25402;42.004;23.088;2023-05-07T09:23:48;6.53;;;3.83;;
39728;SDS011;25402;42.004;23.088;2023-05-07T09:26:18;5.03;;;3.60;;
39728;SDS011;25402;42.004;23.088;2023-05-07T09:28:47;5.75;;;3.55;;
39728;SDS011;25402;42.004;23.088;2023-05-07T09:31:14;6.15;;;3.22;;
39728;SDS011;25402;42.004;23.088;2023-05-07T09:33:41;6.35;;;3.33;;
39728;SDS011;25402;42.004;23.088;2023-05-07T09:36:08;43.95;;;5.07;;
39728;SDS011;25402;42.004;23.088;2023-05-07T09:38:36;10.93;;;3.40;;
39728;SDS011;25402;42.004;23.088;2023-05-07T09:41:03;8.27;;;3.60;;
39728;SDS011;25402;42.004;23.088;2023-05-07T09:43:33;8.05;;;3.50;;
39728;SDS011;25402;42.004;23.088;2023-05-07T09:46:06;7.60;;;3.22;;
39728;SDS011;25402;42.004;23.088;2023-05-07T09:48:38;6.13;;;3.45;;
39728;SDS011;25402;42.004;23.088;2023-05-07T09:51:08;6.43;;;3.20;;
39728;SDS011;25402;42.004;23.088;2023-05-07T09:53:41;4.45;;;2.90;;
39728;SDS011;25402;42.004;23.088;2023-05-07T09:56:11;9.30;;;3.35;;
39728;SDS011;25402;42.004;23.088;2023-05-07T09:58:41;5.38;;;2.90;;
39728;SDS011;25402;42.004;23.088;2023-05-07T10:01:10;5.93;;;2.80;;
39728;SDS011;25402;42.004;23.088;2023-05-07T10:03:39;6.38;;;2.92;;
39728;SDS011;25402;42.004;23.088;2023-05-07T10:06:08;4.10;;;2.67;;
39728;SDS011;25402;42.004;23.088;2023-05-07T10:08:36;6.30;;;3.30;;
39728;SDS011;25402;42.004;23.088;2023-05-07T10:11:04;10.25;;;3.42;;
39728;SDS011;25402;42.004;23.088;2023-05-07T10:13:32;6.97;;;2.78;;
39728;SDS011;25402;42.004;23.088;2023-05-07T10:16:02;5.65;;;2.95;;
39728;SDS011;25402;42.004;23.088;2023-05-07T10:21:00;7.10;;;2.55;;
39728;SDS011;25402;42.004;23.088;2023-05-07T10:23:33;3.45;;;2.70;;
39728;SDS011;25402;42.004;23.088;2023-05-07T10:26:00;3.88;;;2.80;;
39728;SDS011;25402;42.004;23.088;2023-05-07T10:28:30;5.40;;;2.50;;
39728;SDS011;25402;42.004;23.088;2023-05-07T10:31:07;3.10;;;2.47;;
39728;SDS011;25402;42.004;23.088;2023-05-07T10:33:41;5.57;;;2.80;;
39728;SDS011;25402;42.004;23.088;2023-05-07T10:36:11;4.45;;;2.88;;
39728;SDS011;25402;42.004;23.088;2023-05-07T10:38:38;4.97;;;2.65;;
39728;SDS011;25402;42.004;23.088;2023-05-07T10:41:06;4.30;;;2.80;;
39728;SDS011;25402;42.004;23.088;2023-05-07T10:43:39;3.75;;;2.70;;
39728;SDS011;25402;42.004;23.088;2023-05-07T10:46:16;3.78;;;2.70;;
39728;SDS011;25402;42.004;23.088;2023-05-07T10:51:36;3.25;;;2.65;;
39728;SDS011;25402;42.004;23.088;2023-05-07T10:54:22;4.32;;;2.72;;
39728;SDS011;25402;42.004;23.088;2023-05-07T10:56:51;5.30;;;2.50;;
39728;SDS011;25402;42.004;23.088;2023-05-07T11:02:10;4.30;;;2.50;;
39728;SDS011;25402;42.004;23.088;2023-05-07T11:04:39;7.68;;;3.13;;
39728;SDS011;25402;42.004;23.088;2023-05-07T11:07:19;4.43;;;2.95;;
39728;SDS011;25402;42.004;23.088;2023-05-07T11:09:54;4.30;;;2.75;;
39728;SDS011;25402;42.004;23.088;2023-05-07T11:15:36;4.13;;;2.67;;
39728;SDS011;25402;42.004;23.088;2023-05-07T11:18:06;7.65;;;2.50;;
39728;SDS011;25402;42.004;23.088;2023-05-07T11:20:52;3.47;;;2.45;;
39728;SDS011;25402;42.004;23.088;2023-05-07T11:26:45;5.22;;;2.30;;
39728;SDS011;25402;42.004;23.088;2023-05-07T11:29:14;3.97;;;2.63;;
39728;SDS011;25402;42.004;23.088;2023-05-07T11:31:42;4.38;;;2.78;;
39728;SDS011;25402;42.004;23.088;2023-05-07T11:34:10;6.50;;;2.85;;
39728;SDS011;25402;42.004;23.088;2023-05-07T11:36:41;2.75;;;2.35;;
39728;SDS011;25402;42.004;23.088;2023-05-07T11:39:23;3.33;;;2.35;;
39728;SDS011;25402;42.004;23.088;2023-05-07T11:41:51;7.22;;;2.88;;
39728;SDS011;25402;42.004;23.088;2023-05-07T11:44:18;2.90;;;2.60;;
39728;SDS011;25402;42.004;23.088;2023-05-07T11:46:44;7.88;;;2.40;;
39728;SDS011;25402;42.004;23.088;2023-05-07T11:49:13;4.43;;;2.60;;
39728;SDS011;25402;42.004;23.088;2023-05-07T11:51:40;2.97;;;2.33;;
39728;SDS011;25402;42.004;23.088;2023-05-07T11:54:08;3.03;;;2.60;;
39728;SDS011;25402;42.004;23.088;2023-05-07T11:56:36;3.70;;;2.75;;
39728;SDS011;25402;42.004;23.088;2023-05-07T11:59:04;3.70;;;2.53;;
39728;SDS011;25402;42.004;23.088;2023-05-07T12:01:31;4.80;;;2.67;;
39728;SDS011;25402;42.004;23.088;2023-05-07T12:03:58;3.50;;;2.75;;
39728;SDS011;25402;42.004;23.088;2023-05-07T12:06:30;2.88;;;2.47;;
39728;SDS011;25402;42.004;23.088;2023-05-07T12:08:57;7.15;;;2.40;;
39728;SDS011;25402;42.004;23.088;2023-05-07T12:11:24;3.78;;;2.42;;
39728;SDS011;25402;42.004;23.088;2023-05-07T12:13:53;3.90;;;2.58;;
39728;SDS011;25402;42.004;23.088;2023-05-07T12:16:20;3.15;;;2.83;;
39728;SDS011;25402;42.004;23.088;2023-05-07T12:18:47;3.35;;;2.55;;
39728;SDS011;25402;42.004;23.088;2023-05-07T12:21:15;6.57;;;2.90;;
39728;SDS011;25402;42.004;23.088;2023-05-07T12:23:43;6.40;;;2.70;;
39728;SDS011;25402;42.004;23.088;2023-05-07T12:26:11;3.78;;;2.40;;
39728;SDS011;25402;42.004;23.088;2023-05-07T12:28:38;5.45;;;2.80;;
39728;SDS011;25402;42.004;23.088;2023-05-07T12:31:05;7.47;;;2.85;;
39728;SDS011;25402;42.004;23.088;2023-05-07T12:33:33;4.80;;;2.78;;
39728;SDS011;25402;42.004;23.088;2023-05-07T12:36:02;3.08;;;2.45;;
39728;SDS011;25402;42.004;23.088;2023-05-07T12:38:36;5.53;;;2.58;;
39728;SDS011;25402;42.004;23.088;2023-05-07T12:41:06;5.72;;;2.78;;
39728;SDS011;25402;42.004;23.088;2023-05-07T12:43:35;4.47;;;2.25;;
39728;SDS011;25402;42.004;23.088;2023-05-07T12:46:03;3.03;;;2.65;;
39728;SDS011;25402;42.004;23.088;2023-05-07T12:48:30;3.97;;;2.50;;
39728;SDS011;25402;42.004;23.088;2023-05-07T12:50:58;2.50;;;2.28;;
39728;SDS011;25402;42.004;23.088;2023-05-07T12:53:26;4.65;;;2.30;;
39728;SDS011;25402;42.004;23.088;2023-05-07T12:55:55;3.75;;;2.20;;
39728;SDS011;25402;42.004;23.088;2023-05-07T12:58:26;3.88;;;2.20;;
39728;SDS011;25402;42.004;23.088;2023-05-07T13:00:55;4.93;;;2.35;;
39728;SDS011;25402;42.004;23.088;2023-05-07T13:03:26;2.63;;;2.40;;
39728;SDS011;25402;42.004;23.088;2023-05-07T13:05:55;2.90;;;2.17;;
39728;SDS011;25402;42.004;23.088;2023-05-07T13:08:24;4.07;;;2.38;;
39728;SDS011;25402;42.004;23.088;2023-05-07T13:10:54;2.55;;;2.30;;
39728;SDS011;25402;42.004;23.088;2023-05-07T13:13:23;2.95;;;2.35;;
39728;SDS011;25402;42.004;23.088;2023-05-07T13:15:51;5.30;;;2.33;;
39728;SDS011;25402;42.004;23.088;2023-05-07T13:18:18;5.20;;;2.40;;
39728;SDS011;25402;42.004;23.088;2023-05-07T13:20:45;3.67;;;2.25;;
39728;SDS011;25402;42.004;23.088;2023-05-07T13:23:12;4.78;;;2.20;;
39728;SDS011;25402;42.004;23.088;2023-05-07T13:25:38;6.63;;;2.30;;
39728;SDS011;25402;42.004;23.088;2023-05-07T13:28:05;2.53;;;2.10;;
39728;SDS011;25402;42.004;23.088;2023-05-07T13:30:32;5.90;;;2.10;;
39728;SDS011;25402;42.004;23.088;2023-05-07T13:33:01;3.88;;;2.10;;
39728;SDS011;25402;42.004;23.088;2023-05-07T13:35:28;2.58;;;2.10;;
39728;SDS011;25402;42.004;23.088;2023-05-07T13:37:55;3.50;;;2.15;;
39728;SDS011;25402;42.004;23.088;2023-05-07T13:40:22;5.13;;;2.60;;
39728;SDS011;25402;42.004;23.088;2023-05-07T13:42:49;2.78;;;2.00;;
39728;SDS011;25402;42.004;23.088;2023-05-07T13:45:16;2.58;;;2.28;;
39728;SDS011;25402;42.004;23.088;2023-05-07T13:47:44;3.42;;;2.20;;
39728;SDS011;25402;42.004;23.088;2023-05-07T13:50:12;3.75;;;2.40;;
39728;SDS011;25402;42.004;23.088;2023-05-07T13:52:40;6.18;;;2.53;;
39728;SDS011;25402;42.004;23.088;2023-05-07T13:55:08;3.47;;;2.13;;
39728;SDS011;25402;42.004;23.088;2023-05-07T13:57:36;2.38;;;2.17;;
39728;SDS011;25402;42.004;23.088;2023-05-07T14:00:03;2.80;;;1.90;;
39728;SDS011;25402;42.004;23.088;2023-05-07T14:02:31;3.97;;;2.08;;
39728;SDS011;25402;42.004;23.088;2023-05-07T14:04:58;4.70;;;2.33;;
39728;SDS011;25402;42.004;23.088;2023-05-07T14:07:26;5.15;;;2.42;;
39728;SDS011;25402;42.004;23.088;2023-05-07T14:09:53;6.30;;;2.33;;
39728;SDS011;25402;42.004;23.088;2023-05-07T14:12:20;2.20;;;2.00;;
39728;SDS011;25402;42.004;23.088;2023-05-07T14:14:47;4.00;;;2.13;;
39728;SDS011;25402;42.004;23.088;2023-05-07T14:17:15;2.70;;;2.03;;
39728;SDS011;25402;42.004;23.088;2023-05-07T14:19:42;2.45;;;2.00;;
39728;SDS011;25402;42.004;23.088;2023-05-07T14:22:09;6.60;;;2.40;;
39728;SDS011;25402;42.004;23.088;2023-05-07T14:24:37;5.35;;;2.70;;
39728;SDS011;25402;42.004;23.088;2023-05-07T14:27:04;8.48;;;2.80;;
39728;SDS011;25402;42.004;23.088;2023-05-07T14:29:32;7.80;;;2.42;;
39728;SDS011;25402;42.004;23.088;2023-05-07T14:32:00;4.68;;;2.40;;
39728;SDS011;25402;42.004;23.088;2023-05-07T14:34:28;6.63;;;2.60;;
39728;SDS011;25402;42.004;23.088;2023-05-07T14:36:55;16.30;;;3.35;;
39728;SDS011;25402;42.004;23.088;2023-05-07T14:39:21;5.50;;;2.45;;
39728;SDS011;25402;42.004;23.088;2023-05-07T14:41:50;10.85;;;2.65;;
39728;SDS011;25402;42.004;23.088;2023-05-07T14:44:16;7.63;;;2.40;;
39728;SDS011;25402;42.004;23.088;2023-05-07T14:46:43;3.40;;;2.58;;
39728;SDS011;25402;42.004;23.088;2023-05-07T14:49:10;3.28;;;2.55;;
39728;SDS011;25402;42.004;23.088;2023-05-07T14:51:42;2.50;;;2.20;;